createdAt,value
2022-09-01T00:01:06.510Z,2.6
2022-09-01T00:02:16.201Z,3
2022-09-01T00:03:25.818Z,3.8
2022-09-01T00:04:34.529Z,4
2022-09-01T00:05:44.170Z,2.8
2022-09-01T00:06:53.844Z,3.7
2022-09-01T00:08:02.555Z,4.8
2022-09-01T00:09:12.218Z,4.7
2022-09-01T00:10:19.870Z,3.2
2022-09-01T00:11:29.526Z,5.8
2022-09-01T00:12:38.213Z,4.2
2022-09-01T00:13:47.877Z,4.4
2022-09-01T00:14:57.559Z,3.9
2022-09-01T00:16:06.273Z,3
2022-09-01T00:17:15.873Z,3.3
2022-09-01T00:18:24.556Z,5
2022-09-01T00:19:33.219Z,4.1
2022-09-01T00:20:42.877Z,4.2
2022-09-01T00:21:51.521Z,4.8
2022-09-01T00:22:59.178Z,4.4
2022-09-01T00:24:08.961Z,4.4
2022-09-01T00:25:17.630Z,3.8
2022-09-01T00:26:26.302Z,4.2
2022-09-01T00:27:35.965Z,4.1
2022-09-01T00:28:43.623Z,5.3
2022-09-01T00:29:53.319Z,2.7
2022-09-01T00:31:02.012Z,3
2022-09-01T00:32:10.638Z,3.9
2022-09-01T00:33:20.290Z,2.8
2022-09-01T00:34:28.951Z,2.6
2022-09-01T00:35:38.607Z,4.3
2022-09-01T00:36:47.254Z,4
2022-09-01T00:37:55.920Z,5.1
2022-09-01T00:39:06.564Z,2.8
2022-09-01T00:40:17.298Z,3.6
2022-09-01T00:41:25.048Z,4.4
2022-09-01T00:42:33.698Z,3.4
2022-09-01T00:43:43.383Z,4.2
2022-09-01T00:44:52.074Z,3.6
2022-09-01T00:46:00.742Z,5.2
2022-09-01T00:47:09.404Z,2.9
2022-09-01T00:48:20.263Z,3.6
2022-09-01T00:49:26.707Z,3.6
2022-09-01T00:50:36.368Z,2.6
2022-09-01T00:51:46.024Z,3.8
2022-09-01T00:52:53.731Z,4.6
2022-09-01T00:54:02.431Z,2.4
2022-09-01T00:55:12.093Z,3
2022-09-01T00:56:20.738Z,4.3
2022-09-01T00:57:30.423Z,4.5
2022-09-01T00:58:39.095Z,3.1
2022-09-01T00:59:48.781Z,4.9
2022-09-01T01:00:57.426Z,5.4
2022-09-01T01:02:05.112Z,3.3
2022-09-01T01:03:14.749Z,3.8
2022-09-01T01:04:22.426Z,4.1
2022-09-01T01:05:30.062Z,3.7
2022-09-01T01:06:39.732Z,3.8
2022-09-01T01:07:49.382Z,3.3
2022-09-01T01:08:59.048Z,4.7
2022-09-01T01:10:08.743Z,6.7
2022-09-01T01:11:16.401Z,4.6
2022-09-01T01:12:26.067Z,5.5
2022-09-01T01:13:34.722Z,5
2022-09-01T01:14:45.913Z,4.8
2022-09-01T01:15:54.054Z,3
2022-09-01T01:17:02.746Z,5.2
2022-09-01T01:18:12.381Z,3.5
2022-09-01T01:19:21.014Z,3.2
2022-09-01T01:20:30.676Z,3.2
2022-09-01T01:21:40.398Z,3.1
2022-09-01T01:22:49.040Z,3.8
2022-09-01T01:23:57.699Z,3.7
2022-09-01T01:25:06.388Z,4.5
2022-09-01T01:26:14.048Z,2.7
2022-09-01T01:27:23.853Z,3
2022-09-01T01:28:33.505Z,4.1
2022-09-01T01:29:41.147Z,3.3
2022-09-01T01:30:50.854Z,4.1
2022-09-01T01:31:59.477Z,5
2022-09-01T01:33:09.192Z,4.1
2022-09-01T01:34:18.857Z,4.6
2022-09-01T01:35:26.566Z,3.9
2022-09-01T01:36:36.257Z,3.9
2022-09-01T01:37:45.899Z,4.3
2022-09-01T01:38:54.587Z,4.4
2022-09-01T01:40:04.323Z,2.7
2022-09-01T01:41:12.926Z,5.7
2022-09-01T01:42:20.561Z,3.5
2022-09-01T01:43:29.219Z,4
2022-09-01T01:44:36.879Z,2.7
2022-09-01T01:45:46.566Z,3.9
2022-09-01T01:46:55.215Z,3.2
2022-09-01T01:48:02.902Z,2.6
2022-09-01T01:49:12.575Z,6.3
2022-09-01T01:50:21.224Z,3.5
2022-09-01T01:51:29.945Z,4
2022-09-01T01:52:38.592Z,4.5
2022-09-01T01:53:47.241Z,3.2
2022-09-01T01:54:56.893Z,4.5
2022-09-01T01:56:05.558Z,2.1
2022-09-01T01:57:14.228Z,3.5
2022-09-01T01:58:23.921Z,2.9
2022-09-01T01:59:32.558Z,2.9
2022-09-01T02:00:41.222Z,4.5
2022-09-01T02:01:49.935Z,5
2022-09-01T02:02:58.586Z,3.3
2022-09-01T02:04:08.246Z,3.6
2022-09-01T02:05:16.921Z,3.7
2022-09-01T02:06:25.575Z,4.2
2022-09-01T02:07:35.284Z,2.9
2022-09-01T02:08:43.923Z,3.9
2022-09-01T02:09:52.569Z,2.8
2022-09-01T02:11:02.222Z,3.4
2022-09-01T02:12:09.868Z,3
2022-09-01T02:13:20.542Z,3.3
2022-09-01T02:14:29.197Z,4
2022-09-01T02:15:37.867Z,4.3
2022-09-01T02:16:47.672Z,5
2022-09-01T02:17:56.184Z,2.9
2022-09-01T02:19:05.849Z,4
2022-09-01T02:20:14.505Z,3.4
2022-09-01T02:21:23.201Z,5
2022-09-01T02:22:32.867Z,4.3
2022-09-01T02:23:41.518Z,3.9
2022-09-01T02:24:50.186Z,5.2
2022-09-01T02:26:15.423Z,3
2022-09-01T02:27:09.476Z,5.3
2022-09-01T02:28:19.207Z,3.9
2022-09-01T02:29:26.782Z,5.8
2022-09-01T02:30:33.591Z,3.6
2022-09-01T02:31:43.204Z,2.6
2022-09-01T02:32:51.854Z,4.9
2022-09-01T02:34:00.515Z,4.6
2022-09-01T02:35:10.194Z,3.1
2022-09-01T02:36:18.911Z,4
2022-09-01T02:37:26.586Z,2.9
2022-09-01T02:38:35.237Z,3.4
2022-09-01T02:39:43.921Z,5.3
2022-09-01T02:40:53.594Z,3.2
2022-09-01T02:42:02.356Z,2.8
2022-09-01T02:43:11.022Z,4.8
2022-09-01T02:44:20.686Z,4.1
2022-09-01T02:45:29.389Z,3.3
2022-09-01T02:46:39.051Z,4.6
2022-09-01T02:47:48.780Z,3.1
2022-09-01T02:48:56.463Z,3
2022-09-01T02:50:06.120Z,5.5
2022-09-01T02:51:15.779Z,3.4
2022-09-01T02:52:24.423Z,4.4
2022-09-01T02:53:34.174Z,3.9
2022-09-01T02:54:43.849Z,3
2022-09-01T02:55:52.502Z,3.8
2022-09-01T02:57:01.165Z,5.6
2022-09-01T02:58:09.829Z,4.7
2022-09-01T02:59:20.492Z,3.8
2022-09-01T03:00:27.147Z,4.2
2022-09-01T03:01:36.896Z,3.5
2022-09-01T03:02:45.505Z,5
2022-09-01T03:03:55.163Z,3.5
2022-09-01T03:05:04.905Z,6.1
2022-09-01T03:06:13.498Z,4.3
2022-09-01T03:07:22.163Z,3.5
2022-09-01T03:08:31.832Z,4.8
2022-09-01T03:09:41.490Z,3.9
2022-09-01T03:10:51.190Z,5
2022-09-01T03:11:59.850Z,4.4
2022-09-01T03:13:07.505Z,4.8
2022-09-01T03:14:17.164Z,3.4
2022-09-01T03:15:24.818Z,4.3
2022-09-01T03:16:34.525Z,5.6
2022-09-01T03:17:43.147Z,4.9
2022-09-01T03:18:51.818Z,4.1
2022-09-01T03:20:01.477Z,5.1
2022-09-01T03:21:10.154Z,5.7
2022-09-01T03:22:18.876Z,5.6
2022-09-01T03:23:28.556Z,5.2
2022-09-01T03:24:38.207Z,4.2
2022-09-01T03:25:46.896Z,2.7
2022-09-01T03:26:55.556Z,3.8
2022-09-01T03:28:05.253Z,3.4
2022-09-01T03:29:14.920Z,3.8
2022-09-01T03:30:24.589Z,6.4
2022-09-01T03:31:33.377Z,5
2022-09-01T03:32:42.962Z,4.7
2022-09-01T03:33:52.779Z,3.2
2022-09-01T03:35:01.421Z,4.1
2022-09-01T03:36:14.713Z,4.7
2022-09-01T03:37:20.743Z,4.8
2022-09-01T03:38:30.406Z,3.6
2022-09-01T03:39:39.082Z,3
2022-09-01T03:40:46.797Z,3.5
2022-09-01T03:41:56.406Z,3.4
2022-09-01T03:43:05.048Z,3.9
2022-09-01T03:44:12.710Z,3.8
2022-09-01T03:45:21.503Z,4.1
2022-09-01T03:46:35.805Z,2.5
2022-09-01T03:47:41.820Z,3.2
2022-09-01T03:48:50.470Z,3.8
2022-09-01T03:49:59.147Z,3.6
2022-09-01T03:51:08.870Z,6.5
2022-09-01T03:52:17.535Z,3.6
2022-09-01T03:53:25.201Z,3.8
2022-09-01T03:54:34.854Z,4
2022-09-01T03:55:42.513Z,5.3
2022-09-01T03:56:52.198Z,3.5
2022-09-01T03:58:00.872Z,3.5
2022-09-01T03:59:10.519Z,2.8
2022-09-01T04:00:20.170Z,5.4
2022-09-01T04:01:28.966Z,4.1
2022-09-01T04:02:37.566Z,3.9
2022-09-01T04:03:48.159Z,3.8
2022-09-01T04:04:56.816Z,2.3
2022-09-01T04:06:06.477Z,3.1
2022-09-01T04:07:15.595Z,2.8
2022-09-01T04:08:23.908Z,3.4
2022-09-01T04:09:33.566Z,5.3
2022-09-01T04:10:43.223Z,3.4
2022-09-01T04:11:51.883Z,3.5
2022-09-01T04:13:00.537Z,6.1
2022-09-01T04:14:08.230Z,4.9
2022-09-01T04:15:17.907Z,3.5
2022-09-01T04:16:26.585Z,4
2022-09-01T04:17:34.229Z,3.8
2022-09-01T04:18:43.906Z,4.1
2022-09-01T04:19:53.598Z,2.7
2022-09-01T04:21:02.251Z,4.3
2022-09-01T04:22:11.919Z,3.5
2022-09-01T04:23:20.585Z,4.9
2022-09-01T04:24:30.289Z,4.2
2022-09-01T04:25:38.977Z,4.7
2022-09-01T04:26:47.637Z,3
2022-09-01T04:27:57.302Z,3.6
2022-09-01T04:29:05.973Z,6.2
2022-09-01T04:30:14.649Z,4.5
2022-09-01T04:31:23.411Z,3.9
2022-09-01T04:32:31.019Z,4.7
2022-09-01T04:33:40.691Z,4.4
2022-09-01T04:34:49.407Z,5.2
2022-09-01T04:35:57.065Z,5.4
2022-09-01T04:37:06.875Z,5.5
2022-09-01T04:38:15.549Z,5.5
2022-09-01T04:39:25.227Z,4
2022-09-01T04:40:34.161Z,3.4
2022-09-01T04:41:42.918Z,5.4
2022-09-01T04:42:52.690Z,4.7
2022-09-01T04:44:02.392Z,2.7
2022-09-01T04:45:12.040Z,3.1
2022-09-01T04:46:22.682Z,3.6
2022-09-01T04:47:31.754Z,5.2
2022-09-01T04:48:41.033Z,5.1
2022-09-01T04:49:50.680Z,2.2
2022-09-01T04:51:00.336Z,4.3
2022-09-01T04:52:10.044Z,3
2022-09-01T04:53:18.729Z,3.6
2022-09-01T04:54:27.408Z,5.6
2022-09-01T04:55:37.083Z,5.7
2022-09-01T04:56:44.745Z,4.5
2022-09-01T04:57:54.423Z,4.8
2022-09-01T04:59:03.090Z,5.6
2022-09-01T05:00:11.780Z,5.1
2022-09-01T05:01:21.530Z,4.7
2022-09-01T05:02:30.181Z,8.7
2022-09-01T05:03:39.754Z,3.8
2022-09-01T05:04:48.413Z,4
2022-09-01T05:05:57.125Z,4.3
2022-09-01T05:07:06.813Z,4.8
2022-09-01T05:08:18.106Z,4.8
2022-09-01T05:09:26.166Z,4.4
2022-09-01T05:10:35.828Z,4.4
2022-09-01T05:11:43.515Z,5
2022-09-01T05:12:53.167Z,4.9
2022-09-01T05:14:01.827Z,4.4
2022-09-01T05:15:10.508Z,4.5
2022-09-01T05:16:24.163Z,3.7
2022-09-01T05:17:29.870Z,5.4
2022-09-01T05:18:38.531Z,7.5
2022-09-01T05:19:47.197Z,4.4
2022-09-01T05:20:54.860Z,4.6
2022-09-01T05:22:04.519Z,5
2022-09-01T05:23:13.216Z,5
2022-09-01T05:24:20.862Z,2.6
2022-09-01T05:25:30.542Z,6.3
2022-09-01T05:26:39.214Z,4.9
2022-09-01T05:27:47.875Z,4.4
2022-09-01T05:28:56.620Z,4.6
2022-09-01T05:30:05.293Z,3.2
2022-09-01T05:31:15.056Z,3.4
2022-09-01T05:32:23.706Z,6.2
2022-09-01T05:33:32.376Z,4.9
2022-09-01T05:34:42.082Z,4.7
2022-09-01T05:35:50.747Z,4.3
2022-09-01T05:36:59.442Z,3.2
2022-09-01T05:38:09.104Z,2.9
2022-09-01T05:39:17.777Z,3.2
2022-09-01T05:40:27.632Z,4.3
2022-09-01T05:41:36.252Z,4.8
2022-09-01T05:42:45.931Z,3.5
2022-09-01T05:44:00.252Z,4.1
2022-09-01T05:45:06.260Z,3.2
2022-09-01T05:46:15.962Z,3.3
2022-09-01T05:47:24.621Z,2.6
2022-09-01T05:48:34.289Z,4
2022-09-01T05:49:43.974Z,4.9
2022-09-01T05:50:52.653Z,2.5
2022-09-01T05:52:02.462Z,5.5
2022-09-01T05:53:12.868Z,4.2
2022-09-01T05:54:20.775Z,4.7
2022-09-01T05:55:29.417Z,3.2
2022-09-01T05:56:42.685Z,3.4
2022-09-01T05:57:47.734Z,5.9
2022-09-01T06:00:08.061Z,4.6
2022-09-01T06:01:15.723Z,5
2022-09-01T06:02:25.511Z,3.2
2022-09-01T06:03:37.948Z,2.9
2022-09-01T06:04:45.718Z,5.1
2022-09-01T06:05:55.407Z,3.3
2022-09-01T06:07:06.336Z,4
2022-09-01T06:08:16.413Z,2.8
2022-09-01T06:09:24.427Z,4.3
2022-09-01T06:10:32.099Z,3.3
2022-09-01T06:11:41.780Z,3.3
2022-09-01T06:12:51.410Z,2.1
2022-09-01T06:14:02.059Z,4
2022-09-01T06:15:10.780Z,2.2
2022-09-01T06:16:19.493Z,3.1
2022-09-01T06:17:29.120Z,3.3
2022-09-01T06:18:37.796Z,3.5
2022-09-01T06:19:46.464Z,3.1
2022-09-01T06:20:56.195Z,3.3
2022-09-01T06:22:04.861Z,4.6
2022-09-01T06:23:14.527Z,3.3
2022-09-01T06:24:24.198Z,2.5
2022-09-01T06:25:33.884Z,4.3
2022-09-01T06:26:43.680Z,3.2
2022-09-01T06:27:52.337Z,4.1
2022-09-01T06:29:02.028Z,3.2
2022-09-01T06:30:11.693Z,4.1
2022-09-01T06:31:20.485Z,2.5
2022-09-01T06:32:30.174Z,4.5
2022-09-01T06:33:38.852Z,4.1
2022-09-01T06:34:46.514Z,3.3
2022-09-01T06:35:56.196Z,3.7
2022-09-01T06:37:04.861Z,4.1
2022-09-01T06:38:13.548Z,3.1
2022-09-01T06:39:23.222Z,4.2
2022-09-01T06:40:31.937Z,3.9
2022-09-01T06:41:40.585Z,4.8
2022-09-01T06:42:49.245Z,3
2022-09-01T06:43:58.060Z,2.9
2022-09-01T06:45:07.721Z,3.7
2022-09-01T06:46:16.473Z,3
2022-09-01T06:47:24.071Z,3.5
2022-09-01T06:48:33.755Z,4.7
2022-09-01T06:49:42.445Z,3.5
2022-09-01T06:52:02.749Z,2.5
2022-09-01T06:54:23.044Z,5.1
2022-09-01T06:55:31.824Z,3.1
2022-09-01T06:56:44.589Z,2.2
2022-09-01T06:58:07.192Z,4.1
2022-09-01T06:59:00.831Z,3.2
2022-09-01T07:00:10.504Z,3.6
2022-09-01T07:01:19.245Z,4.4
2022-09-01T07:02:27.866Z,2.8
2022-09-01T07:03:37.508Z,3.3
2022-09-01T07:04:45.157Z,5.7
2022-09-01T07:06:02.264Z,4.4
2022-09-01T07:08:14.113Z,3.5
2022-09-01T07:10:33.470Z,3
2022-09-01T07:13:10.090Z,2.5
2022-09-01T07:14:20.747Z,2.7
2022-09-01T07:16:32.243Z,4.3
2022-09-01T07:17:36.372Z,2.8
2022-09-01T07:18:58.229Z,2.8
2022-09-01T07:19:56.701Z,3.6
2022-09-01T07:21:35.993Z,5.4
2022-09-01T07:23:27.684Z,3.4
2022-09-01T07:24:37.366Z,2.5
2022-09-01T07:26:00.926Z,3.2
2022-09-01T07:26:55.660Z,2.4
2022-09-01T07:28:06.330Z,2.4
2022-09-01T07:29:14.996Z,2.4
2022-09-01T07:30:25.020Z,1.4
2022-09-01T07:31:49.440Z,3.8
2022-09-01T07:32:47.757Z,1.3
2022-09-01T07:33:55.475Z,3.6
2022-09-01T07:35:05.371Z,2.8
2022-09-01T07:36:31.440Z,2.8
2022-09-01T07:39:47.589Z,2.4
2022-09-01T07:39:48.340Z,3.5
2022-09-01T07:42:58.443Z,3.7
2022-09-01T07:43:19.052Z,1.9
2022-09-01T07:44:27.536Z,2.9
2022-09-01T07:45:36.189Z,4.4
2022-09-01T07:46:46.891Z,1.6
2022-09-01T07:47:57.619Z,1.8
2022-09-01T07:51:37.077Z,1.9
2022-09-01T07:52:39.151Z,2.1
2022-09-01T07:53:48.826Z,3.1
2022-09-01T07:54:56.487Z,2.2
2022-09-01T07:56:06.158Z,2.1
2022-09-01T07:57:14.836Z,3.8
2022-09-01T07:58:23.492Z,2.5
2022-09-01T07:59:32.323Z,2
2022-09-01T08:00:40.982Z,1.2
2022-09-01T08:01:50.973Z,2.1
2022-09-01T08:03:00.405Z,2.4
2022-09-01T08:04:10.027Z,1.9
2022-09-01T08:05:19.747Z,1.3
2022-09-01T08:06:28.561Z,2.3
2022-09-01T08:07:51.555Z,1.1
2022-09-01T08:08:49.714Z,2.3
2022-09-01T08:10:01.658Z,1.3
2022-09-01T08:11:10.089Z,1.6
2022-09-01T08:12:18.780Z,2.7
2022-09-01T08:13:27.414Z,1.1
2022-09-01T08:14:37.061Z,1.9
2022-09-01T08:16:57.502Z,1.3
2022-09-01T08:18:06.187Z,1.5
2022-09-01T08:19:16.953Z,1.1
2022-09-01T08:20:25.468Z,1.7
2022-09-01T08:21:34.137Z,1.6
2022-09-01T08:22:43.863Z,1
2022-09-01T08:23:53.533Z,0.9
2022-09-01T08:25:02.213Z,3.5
2022-09-01T08:26:10.892Z,1.5
2022-09-01T08:27:20.578Z,1.4
2022-09-01T08:28:29.560Z,1
2022-09-01T08:29:38.959Z,0.5
2022-09-01T08:30:52.431Z,1.1
2022-09-01T08:31:58.674Z,1.5
2022-09-01T08:33:10.476Z,0.6
2022-09-01T08:34:17.649Z,2.1
2022-09-01T08:35:27.335Z,1.5
2022-09-01T08:36:37.993Z,1.4
2022-09-01T08:37:45.654Z,2.3
2022-09-01T08:38:55.336Z,0.9
2022-09-01T08:40:04.159Z,1.2
2022-09-01T08:41:12.689Z,0.6
2022-09-01T08:42:22.377Z,1.3
2022-09-01T08:43:32.054Z,0.9
2022-09-01T08:44:41.779Z,0.8
2022-09-01T08:45:50.518Z,1.6
2022-09-01T08:46:59.182Z,0.7
2022-09-01T08:48:50.933Z,0.5
2022-09-01T08:49:27.493Z,0.6
2022-09-01T08:50:28.284Z,0.6
2022-09-01T08:51:37.994Z,1.6
2022-09-01T08:52:46.651Z,2.2
2022-09-01T08:53:56.400Z,1
2022-09-01T08:55:05.054Z,1.2
2022-09-01T08:56:14.726Z,2.2
2022-09-01T08:57:23.426Z,0.7
2022-09-01T08:58:33.113Z,0.7
2022-09-01T08:59:42.805Z,1.2
2022-09-01T09:00:54.829Z,1.3
2022-09-01T09:02:00.277Z,1.8
2022-09-01T09:03:09.877Z,1.5
2022-09-01T09:04:19.486Z,1.5
2022-09-01T09:05:28.166Z,0.9
2022-09-01T09:06:36.921Z,0.9
2022-09-01T09:07:46.614Z,0.6
2022-09-01T09:08:56.310Z,1.8
2022-09-01T09:10:04.970Z,2
2022-09-01T09:11:13.638Z,1
2022-09-01T09:12:23.521Z,2.7
2022-09-01T09:13:32.999Z,0.6
2022-09-01T09:14:41.699Z,1.1
2022-09-01T09:15:50.445Z,1.1
2022-09-01T09:17:00.103Z,0.7
2022-09-01T09:18:19.918Z,1.1
2022-09-01T09:19:20.421Z,0.7
2022-09-01T09:20:28.131Z,0.8
2022-09-01T09:21:37.826Z,1.5
2022-09-01T09:22:47.636Z,0.9
2022-09-01T09:23:57.182Z,0.6
2022-09-01T09:25:05.864Z,1
2022-09-01T09:26:21.845Z,0.8
2022-09-01T09:27:26.848Z,2.2
2022-09-01T09:28:34.922Z,0.9
2022-09-01T09:29:45.435Z,1.3
2022-09-01T09:30:54.297Z,1.2
2022-09-01T09:32:04.928Z,1.7
2022-09-01T09:33:44.655Z,1.5
2022-09-01T09:34:26.228Z,1.5
2022-09-01T09:35:33.900Z,1.7
2022-09-01T09:36:42.589Z,0.8
2022-09-01T09:37:53.280Z,1.9
2022-09-01T09:39:02.920Z,0.9
2022-09-01T09:40:12.668Z,0.6
2022-09-01T09:41:26.771Z,1.2
2022-09-01T09:42:35.101Z,1.6
2022-09-01T09:43:44.502Z,1.3
2022-09-01T09:44:54.228Z,0.7
2022-09-01T09:46:03.922Z,1.6
2022-09-01T09:47:33.669Z,1.3
2022-09-01T09:48:24.209Z,1.8
2022-09-01T09:49:34.993Z,2.4
2022-09-01T09:50:44.559Z,1.7
2022-09-01T09:51:54.228Z,1.3
2022-09-01T09:53:03.901Z,0.8
2022-09-01T09:54:13.575Z,0.7
2022-09-01T09:55:22.469Z,1.5
2022-09-01T09:56:32.026Z,0.8
2022-09-01T09:57:42.702Z,1.2
2022-09-01T09:58:50.398Z,1.3
2022-09-01T10:00:00.746Z,1.5
2022-09-01T10:01:10.086Z,1.1
2022-09-01T10:02:18.741Z,2
2022-09-01T10:03:29.413Z,0.7
2022-09-01T10:04:38.100Z,1.6
2022-09-01T10:05:46.782Z,1.4
2022-09-01T10:06:56.468Z,1.1
2022-09-01T10:08:05.230Z,1.4
2022-09-01T10:09:14.875Z,1.7
2022-09-01T10:10:23.560Z,1.1
2022-09-01T10:11:35.481Z,1.1
2022-09-01T10:12:42.895Z,0.8
2022-09-01T10:13:53.600Z,1.4
2022-09-01T10:15:05.560Z,0.9
2022-09-01T10:16:13.927Z,0.8
2022-09-01T10:17:25.890Z,1.1
2022-09-01T10:18:34.485Z,1.4
2022-09-01T10:19:42.966Z,1.6
2022-09-01T10:20:51.628Z,0.9
2022-09-01T10:22:01.289Z,0.6
2022-09-01T10:23:14.883Z,2
2022-09-01T10:24:22.686Z,1
2022-09-01T10:25:32.572Z,0.9
2022-09-01T10:26:39.954Z,1.4
2022-09-01T10:27:49.625Z,1
2022-09-01T10:28:58.321Z,2.5
2022-09-01T10:30:19.083Z,1.4
2022-09-01T10:31:18.722Z,1
2022-09-01T10:32:36.590Z,1.9
2022-09-01T10:33:37.956Z,0.7
2022-09-01T10:34:48.617Z,0.9
2022-09-01T10:35:56.292Z,0.9
2022-09-01T10:37:10.509Z,1.5
2022-09-01T10:38:16.614Z,0.9
2022-09-01T10:39:28.466Z,2.7
2022-09-01T10:40:38.176Z,0.9
2022-09-01T10:41:47.623Z,1.3
2022-09-01T10:42:58.285Z,0.8
2022-09-01T10:44:08.964Z,0.6
2022-09-01T10:45:16.616Z,0.5
2022-09-01T10:46:26.642Z,1.3
2022-09-01T10:47:35.969Z,0.5
2022-09-01T10:48:48.282Z,0.7
2022-09-01T10:49:56.256Z,0.9
2022-09-01T10:51:05.959Z,1.5
2022-09-01T10:52:16.258Z,1.3
2022-09-01T10:53:26.820Z,0.9
2022-09-01T10:54:37.225Z,0.5
2022-09-01T10:55:44.614Z,1.2
2022-09-01T10:56:54.339Z,1.1
2022-09-01T10:58:08.584Z,0.9
2022-09-01T11:00:39.984Z,1
2022-09-01T11:01:47.667Z,0.8
2022-09-01T11:02:46.637Z,0.8
2022-09-01T11:03:56.265Z,0.8
2022-09-01T11:05:06.394Z,1.6
2022-09-01T11:06:15.991Z,1.1
2022-09-01T11:07:33.588Z,0.8
2022-09-01T11:08:36.309Z,1.3
2022-09-01T11:09:45.012Z,1.2
2022-09-01T11:10:54.683Z,0.8
2022-09-01T11:12:03.334Z,1.2
2022-09-01T11:13:13.062Z,0.9
2022-09-01T11:14:21.771Z,0.7
2022-09-01T11:15:30.386Z,0.6
2022-09-01T11:16:49.484Z,1
2022-09-01T11:17:51.730Z,3.4
2022-09-01T11:18:59.404Z,1.5
2022-09-01T11:20:09.096Z,2.2
2022-09-01T11:21:18.791Z,0.8
2022-09-01T11:22:27.502Z,4.4
2022-09-01T11:23:37.197Z,0.9
2022-09-01T11:24:49.534Z,0.6
2022-09-01T11:27:07.178Z,0.6
2022-09-01T11:28:14.902Z,0.5
2022-09-01T11:29:25.574Z,2.3
2022-09-01T11:30:34.263Z,1.1
2022-09-01T11:31:43.002Z,0.9
2022-09-01T11:32:51.574Z,1
2022-09-01T11:33:59.256Z,0.8
2022-09-01T11:35:08.982Z,1.9
2022-09-01T11:36:18.679Z,0.2
2022-09-01T11:37:28.349Z,0.4
2022-09-01T11:38:38.072Z,0.6
2022-09-01T11:39:47.792Z,0.8
2022-09-01T11:40:56.546Z,0.4
2022-09-01T11:42:05.137Z,1
2022-09-01T11:43:14.792Z,0.6
2022-09-01T11:44:25.447Z,0.6
2022-09-01T11:45:34.175Z,1
2022-09-01T11:46:42.821Z,0.3
2022-09-01T11:47:52.489Z,1.8
2022-09-01T11:49:02.171Z,1.1
2022-09-01T11:50:10.830Z,1.4
2022-09-01T11:51:20.521Z,0.7
2022-09-01T11:52:28.189Z,1
2022-09-01T11:53:37.863Z,3.4
2022-09-01T11:54:46.519Z,0.5
2022-09-01T11:55:54.180Z,0.7
2022-09-01T11:57:03.938Z,1.1
2022-09-01T11:58:17.235Z,0.9
2022-09-01T11:59:22.307Z,0.6
2022-09-01T12:00:30.973Z,0.2
2022-09-01T12:01:39.639Z,0.5
2022-09-01T12:02:49.497Z,0.4
2022-09-01T12:03:58.130Z,0.7
2022-09-01T12:05:05.822Z,0.3
2022-09-01T12:06:15.510Z,0.7
2022-09-01T12:07:25.188Z,0.7
2022-09-01T12:08:33.103Z,0.4
2022-09-01T12:09:42.808Z,0.5
2022-09-01T12:10:52.491Z,0.2
2022-09-01T12:12:02.182Z,0.9
2022-09-01T12:13:11.858Z,1.4
2022-09-01T12:14:21.554Z,1.1
2022-09-01T12:15:31.234Z,0.9
2022-09-01T12:16:39.977Z,0.5
2022-09-01T12:17:48.620Z,0.4
2022-09-01T12:18:58.288Z,1.4
2022-09-01T12:20:07.988Z,0.3
2022-09-01T12:21:16.641Z,0.2
2022-09-01T12:22:25.373Z,0.4
2022-09-01T12:23:33.072Z,0.4
2022-09-01T12:24:42.755Z,0.6
2022-09-01T12:25:51.450Z,0.7
2022-09-01T12:27:00.138Z,0.4
2022-09-01T12:28:11.048Z,0.6
2022-09-01T12:29:18.546Z,0.3
2022-09-01T12:30:27.230Z,0.6
2022-09-01T12:31:37.038Z,0.8
2022-09-01T12:32:45.618Z,0.8
2022-09-01T12:33:55.341Z,0.9
2022-09-01T12:35:09.533Z,1.2
2022-09-01T12:36:13.724Z,0.7
2022-09-01T12:37:24.419Z,0.5
2022-09-01T12:38:33.145Z,0.8
2022-09-01T12:39:42.786Z,0.9
2022-09-01T12:40:52.478Z,0.5
2022-09-01T12:42:01.139Z,0.5
2022-09-01T12:43:09.835Z,0.6
2022-09-01T12:44:19.522Z,0.4
2022-09-01T12:45:29.221Z,0.3
2022-09-01T12:46:38.887Z,0.5
2022-09-01T12:47:47.991Z,0.5
2022-09-01T12:48:57.486Z,0.6
2022-09-01T12:50:05.979Z,0.3
2022-09-01T12:51:14.652Z,0.5
2022-09-01T12:52:23.315Z,0.3
2022-09-01T12:53:30.988Z,0.3
2022-09-01T12:54:41.673Z,0.3
2022-09-01T12:55:50.360Z,0.5
2022-09-01T12:56:59.021Z,0.2
2022-09-01T12:58:08.708Z,1
2022-09-01T12:59:20.064Z,0.3
2022-09-01T13:00:28.054Z,0.6
2022-09-01T13:01:37.988Z,0.2
2022-09-01T13:02:45.542Z,0.1
2022-09-01T13:03:55.089Z,0.4
2022-09-01T13:05:03.745Z,0.3
2022-09-01T13:06:14.573Z,0.2
2022-09-01T13:07:24.279Z,0.5
2022-09-01T13:08:32.953Z,1.1
2022-09-01T13:09:41.622Z,0.3
2022-09-01T13:10:51.565Z,0.7
2022-09-01T13:12:07.898Z,1.6
2022-09-01T13:13:10.823Z,0.3
2022-09-01T13:14:20.484Z,0.5
2022-09-01T13:15:28.156Z,0.7
2022-09-01T13:16:37.868Z,0.5
2022-09-01T13:17:47.486Z,0.7
2022-09-01T13:19:12.598Z,0.2
2022-09-01T13:20:07.825Z,0.6
2022-09-01T13:21:16.513Z,0.2
2022-09-01T13:22:26.183Z,0.6
2022-09-01T13:23:34.867Z,0.4
2022-09-01T13:24:44.538Z,0.4
2022-09-01T13:25:54.217Z,1
2022-09-01T13:28:13.582Z,0.4
2022-09-01T13:29:22.237Z,0.5
2022-09-01T13:30:29.939Z,0.3
2022-09-01T13:32:16.349Z,0.9
2022-09-01T13:33:20.760Z,1.1
2022-09-01T13:34:22.818Z,0.5
2022-09-01T13:35:10.656Z,0.2
2022-09-01T13:36:51.926Z,0.4
2022-09-01T13:37:30.012Z,0.4
2022-09-01T13:38:38.696Z,1.1
2022-09-01T13:39:48.411Z,1
2022-09-01T13:40:57.258Z,1.1
2022-09-01T13:42:05.883Z,0.6
2022-09-01T13:43:13.411Z,0.4
2022-09-01T13:44:23.114Z,0.3
2022-09-01T13:45:33.552Z,0.3
2022-09-01T13:49:04.889Z,0.6
2022-09-01T13:50:16.387Z,0.6
2022-09-01T13:51:25.144Z,1
2022-09-01T13:52:32.817Z,1.2
2022-09-01T13:53:42.490Z,0.3
2022-09-01T13:54:52.160Z,0.4
2022-09-01T13:55:59.837Z,0.3
2022-09-01T13:57:09.509Z,0.3
2022-09-01T13:58:19.284Z,0.4
2022-09-01T13:59:28.892Z,0.3
2022-09-01T14:00:38.602Z,1.6
2022-09-01T14:01:46.224Z,0.7
2022-09-01T14:02:55.886Z,0.4
2022-09-01T14:04:05.701Z,0.3
2022-09-01T14:05:15.352Z,0.2
2022-09-01T14:06:24.036Z,0.5
2022-09-01T14:07:32.701Z,0.5
2022-09-01T14:08:42.404Z,0.4
2022-09-01T14:09:51.219Z,0.6
2022-09-01T14:10:58.903Z,0.9
2022-09-01T14:12:08.574Z,1.1
2022-09-01T14:13:17.251Z,0.8
2022-09-01T14:14:26.377Z,0.4
2022-09-01T14:15:34.656Z,0.8
2022-09-01T14:16:43.398Z,0.8
2022-09-01T14:17:53.034Z,0.6
2022-09-01T14:19:02.724Z,0.4
2022-09-01T14:20:10.424Z,0.3
2022-09-01T14:21:20.144Z,1.5
2022-09-01T14:22:29.811Z,0.4
2022-09-01T14:23:39.473Z,0.4
2022-09-01T14:24:49.179Z,0.4
2022-09-01T14:25:56.870Z,0.8
2022-09-01T14:27:06.603Z,0.8
2022-09-01T14:28:14.260Z,0.6
2022-09-01T14:29:22.900Z,0.6
2022-09-01T14:30:32.560Z,0.5
2022-09-01T14:31:42.266Z,0.4
2022-09-01T14:32:52.999Z,0.5
2022-09-01T14:34:01.692Z,0.4
2022-09-01T14:35:10.373Z,0.5
2022-09-01T14:36:20.054Z,0.4
2022-09-01T14:37:28.719Z,0.4
2022-09-01T14:38:36.419Z,0.8
2022-09-01T14:39:46.113Z,0.3
2022-09-01T14:40:54.858Z,0.2
2022-09-01T14:42:03.498Z,0.5
2022-09-01T14:43:13.167Z,0.4
2022-09-01T14:44:22.860Z,0.5
2022-09-01T14:45:32.569Z,0.2
2022-09-01T14:46:39.236Z,0.4
2022-09-01T14:47:48.898Z,0.4
2022-09-01T14:48:57.551Z,0.2
2022-09-01T14:50:06.249Z,0.2
2022-09-01T14:51:15.980Z,0.3
2022-09-01T14:52:24.561Z,0.4
2022-09-01T14:53:33.207Z,0.4
2022-09-01T14:54:41.967Z,0.4
2022-09-01T14:55:52.623Z,0.2
2022-09-01T14:57:31.804Z,0.1
2022-09-01T14:58:10.968Z,0.4
2022-09-01T14:59:18.654Z,0.3
2022-09-01T15:00:28.397Z,0.5
2022-09-01T15:01:38.172Z,0.2
2022-09-01T15:02:47.826Z,0.2
2022-09-01T15:03:56.553Z,0.6
2022-09-01T15:05:04.203Z,0.4
2022-09-01T15:06:13.824Z,0.5
2022-09-01T15:07:23.513Z,0.6
2022-09-01T15:08:32.166Z,0.3
2022-09-01T15:09:41.867Z,0.7
2022-09-01T15:10:50.546Z,1.3
2022-09-01T15:11:59.226Z,0.2
2022-09-01T15:13:08.959Z,0.3
2022-09-01T15:14:16.649Z,0.5
2022-09-01T15:15:26.334Z,0.6
2022-09-01T15:16:36.041Z,0.4
2022-09-01T15:17:46.389Z,0.4
2022-09-01T15:18:55.376Z,0.4
2022-09-01T15:20:03.030Z,0.3
2022-09-01T15:21:11.712Z,0.3
2022-09-01T15:22:20.417Z,0.2
2022-09-01T15:23:28.105Z,0.7
2022-09-01T15:24:36.832Z,0.4
2022-09-01T15:25:45.509Z,0.5
2022-09-01T15:26:54.166Z,0.2
2022-09-01T15:28:03.862Z,0.6
2022-09-01T15:29:12.540Z,0.2
2022-09-01T15:30:22.284Z,0.2
2022-09-01T15:31:32.714Z,0.2
2022-09-01T15:32:40.580Z,0.2
2022-09-01T15:33:50.262Z,0.1
2022-09-01T15:34:57.944Z,0.5
2022-09-01T15:36:06.636Z,0.8
2022-09-01T15:37:16.307Z,0.5
2022-09-01T15:38:28.482Z,0.2
2022-09-01T15:39:37.797Z,0.4
2022-09-01T15:40:45.399Z,0.2
2022-09-01T15:41:54.027Z,0.4
2022-09-01T15:43:03.750Z,0.7
2022-09-01T15:44:12.415Z,0.6
2022-09-01T15:45:21.106Z,0.8
2022-09-01T15:46:30.894Z,0.4
2022-09-01T15:47:41.300Z,0.2
2022-09-01T15:48:49.183Z,0.4
2022-09-01T15:49:57.865Z,0.9
2022-09-01T15:51:07.492Z,0.3
2022-09-01T15:52:17.214Z,1.2
2022-09-01T15:53:25.990Z,1.3
2022-09-01T15:54:34.680Z,0.7
2022-09-01T15:55:44.371Z,0.3
2022-09-01T15:56:54.047Z,0.4
2022-09-01T15:58:02.696Z,0.4
2022-09-01T15:59:11.381Z,0.7
2022-09-01T16:00:20.049Z,0.8
2022-09-01T16:01:29.825Z,0.4
2022-09-01T16:02:38.393Z,0.4
2022-09-01T16:03:47.136Z,0.5
2022-09-01T16:04:56.842Z,0.4
2022-09-01T16:06:06.523Z,0.6
2022-09-01T16:07:16.209Z,1.1
2022-09-01T16:08:24.915Z,0.6
2022-09-01T16:09:32.572Z,0.8
2022-09-01T16:10:42.330Z,0.4
2022-09-01T16:11:50.957Z,0.4
2022-09-01T16:13:00.652Z,0.2
2022-09-01T16:14:10.350Z,0.6
2022-09-01T16:15:19.042Z,1.1
2022-09-01T16:16:27.852Z,0.3
2022-09-01T16:17:37.437Z,0.7
2022-09-01T16:18:46.110Z,0.4
2022-09-01T16:19:55.777Z,0.4